createdAt,value
2023-05-24T00:02:07.283Z,11.4
2023-05-24T00:04:35.542Z,11.4
2023-05-24T00:07:03.798Z,11.5
2023-05-24T00:09:32.052Z,11.4
2023-05-24T00:12:00.310Z,11.4
2023-05-24T00:14:28.574Z,11.4
2023-05-24T00:16:56.823Z,11.4
2023-05-24T00:19:25.081Z,11.5
2023-05-24T00:21:53.339Z,11.5
2023-05-24T00:26:49.849Z,11.1
2023-05-24T00:29:18.109Z,11.2
2023-05-24T00:31:46.366Z,11.1
2023-05-24T00:34:14.621Z,11
2023-05-24T00:36:42.876Z,11.1
2023-05-24T00:37:57.626Z,11.2
2023-05-24T00:39:11.174Z,11.2
2023-05-24T00:41:39.426Z,11.3
2023-05-24T00:46:35.937Z,11.3
2023-05-24T00:49:04.191Z,11.4
2023-05-24T00:51:32.451Z,11.2
2023-05-24T00:54:00.713Z,11.4
2023-05-24T00:56:28.963Z,11.4
2023-05-24T00:58:57.220Z,11.5
2023-05-24T01:01:25.481Z,11.3
2023-05-24T01:02:40.205Z,11.4
2023-05-24T01:03:53.755Z,11.4
2023-05-24T01:06:22.009Z,11.4
2023-05-24T01:08:50.266Z,11.5
2023-05-24T01:11:18.521Z,11.4
2023-05-24T01:13:46.775Z,11.4
2023-05-24T01:18:43.287Z,11.5
2023-05-24T01:21:11.546Z,11.6
2023-05-24T01:23:39.804Z,11.7
2023-05-24T01:26:08.055Z,11.6
2023-05-24T01:27:22.783Z,11.6
2023-05-24T01:28:36.333Z,11.5
2023-05-24T01:31:04.587Z,11.5
2023-05-24T01:33:32.847Z,11.6
2023-05-24T01:36:01.104Z,11.6
2023-05-24T01:38:29.357Z,11.6
2023-05-24T01:40:57.619Z,11.5
2023-05-24T01:43:25.870Z,11.5
2023-05-24T01:45:54.124Z,11.5
2023-05-24T01:50:50.642Z,11.5
2023-05-24T01:52:05.368Z,11.4
2023-05-24T01:53:18.914Z,11.4
2023-05-24T01:55:47.172Z,11.4
2023-05-24T01:58:15.427Z,11.5
2023-05-24T02:00:43.687Z,11.5
2023-05-24T02:03:11.945Z,11.5
2023-05-24T02:05:40.201Z,11.7
2023-05-24T02:08:08.451Z,11.7
2023-05-24T02:10:36.713Z,11.7
2023-05-24T02:13:04.963Z,11.7
2023-05-24T02:15:33.220Z,11.7
2023-05-24T02:16:47.956Z,11.7
2023-05-24T02:20:29.984Z,11.6
2023-05-24T02:22:58.242Z,11.6
2023-05-24T02:25:26.494Z,11.7
2023-05-24T02:27:54.752Z,11.7
2023-05-24T02:30:23.013Z,11.7
2023-05-24T02:32:51.264Z,11.7
2023-05-24T02:35:19.528Z,11.6
2023-05-24T02:37:47.778Z,11.7
2023-05-24T02:40:16.038Z,11.7
2023-05-24T02:41:30.768Z,11.7
2023-05-24T02:42:44.308Z,11.7
2023-05-24T02:45:12.574Z,11.7
2023-05-24T02:47:40.829Z,11.6
2023-05-24T02:52:37.337Z,11.7
2023-05-24T02:55:05.592Z,11.7
2023-05-24T02:57:33.854Z,11.7
2023-05-24T03:00:02.103Z,11.8
2023-05-24T03:02:30.369Z,11.8
2023-05-24T03:04:58.626Z,11.8
2023-05-24T03:06:13.346Z,11.8
2023-05-24T03:07:26.895Z,11.8
2023-05-24T03:09:55.154Z,11.9
2023-05-24T03:12:23.405Z,11.9
2023-05-24T03:14:51.666Z,11.9
2023-05-24T03:17:19.924Z,11.8
2023-05-24T03:19:48.175Z,11.9
2023-05-24T03:24:44.694Z,11.7
2023-05-24T03:27:12.943Z,11.8
2023-05-24T03:29:41.205Z,11.8
2023-05-24T03:30:55.935Z,11.7
2023-05-24T03:32:09.478Z,11.7
2023-05-24T03:34:37.733Z,11.7
2023-05-24T03:37:05.991Z,11.8
2023-05-24T03:39:34.248Z,11.7
2023-05-24T03:42:02.508Z,11.8
2023-05-24T03:44:30.764Z,11.8
2023-05-24T03:46:59.013Z,11.7
2023-05-24T03:49:27.270Z,11.8
2023-05-24T03:51:55.525Z,11.8
2023-05-24T03:55:38.517Z,11.9
2023-05-24T03:56:52.061Z,11.9
2023-05-24T03:59:20.315Z,11.9
2023-05-24T04:01:48.576Z,11.9
2023-05-24T04:04:16.829Z,11.9
2023-05-24T04:06:45.090Z,11.9
2023-05-24T04:09:13.342Z,11.9
2023-05-24T04:11:41.598Z,11.9
2023-05-24T04:14:09.856Z,11.8
2023-05-24T04:16:38.105Z,11.8
2023-05-24T04:19:06.366Z,11.8
2023-05-24T04:20:21.091Z,11.8
2023-05-24T04:21:34.646Z,11.8
2023-05-24T04:26:31.156Z,11.8
2023-05-24T04:28:59.412Z,11.8
2023-05-24T04:31:27.672Z,11.8
2023-05-24T04:33:55.920Z,11.8
2023-05-24T04:36:24.176Z,11.8
2023-05-24T04:38:52.440Z,11.9
2023-05-24T04:41:20.692Z,11.9
2023-05-24T04:43:48.955Z,11.9
2023-05-24T04:45:03.678Z,11.9
2023-05-24T04:46:17.230Z,11.8
2023-05-24T04:48:45.484Z,11.8
2023-05-24T04:51:13.736Z,11.9
2023-05-24T04:53:41.992Z,11.8
2023-05-24T04:58:38.508Z,11.9
2023-05-24T05:01:06.762Z,12
2023-05-24T05:03:35.021Z,12
2023-05-24T05:06:03.277Z,12
2023-05-24T05:08:31.534Z,12.1
2023-05-24T05:09:46.262Z,12.1
2023-05-24T05:10:59.804Z,12.1
2023-05-24T05:13:28.067Z,12.1
2023-05-24T05:15:56.318Z,12.1
2023-05-24T05:18:24.578Z,12.1
2023-05-24T05:20:52.835Z,12.1
2023-05-24T05:23:21.083Z,12.3
2023-05-24T05:25:49.347Z,12.2
2023-05-24T05:30:45.857Z,12.1
2023-05-24T05:33:14.108Z,12.1
2023-05-24T05:34:28.835Z,12.2
2023-05-24T05:35:42.388Z,12.2
2023-05-24T05:38:10.646Z,12.2
2023-05-24T05:40:38.902Z,12.2
2023-05-24T05:43:07.152Z,12.2
2023-05-24T05:45:35.406Z,12.1
2023-05-24T05:48:03.663Z,12.1
2023-05-24T05:50:31.919Z,12.1
2023-05-24T05:53:00.176Z,12.2
2023-05-24T05:55:28.434Z,12.3
2023-05-24T05:57:56.686Z,12.3
2023-05-24T06:00:24.948Z,12.3
2023-05-24T06:02:53.202Z,12.4
2023-05-24T06:05:21.457Z,12.3
2023-05-24T06:07:49.714Z,12.3
2023-05-24T06:10:17.975Z,12.4
2023-05-24T06:12:46.224Z,12.4
2023-05-24T06:15:14.483Z,12.4
2023-05-24T06:17:42.737Z,12.5
2023-05-24T06:20:10.994Z,12.5
2023-05-24T06:22:39.249Z,12.5
2023-05-24T06:23:53.999Z,12.5
2023-05-24T06:25:07.543Z,12.6
2023-05-24T06:27:35.801Z,12.6
2023-05-24T06:32:32.313Z,12.8
2023-05-24T06:35:00.567Z,13
2023-05-24T06:37:28.828Z,13
2023-05-24T06:39:57.078Z,12.9
2023-05-24T06:42:25.336Z,12.9
2023-05-24T06:44:53.591Z,12.9
2023-05-24T06:47:21.851Z,12.7
2023-05-24T06:48:36.577Z,12.9
2023-05-24T06:49:50.125Z,13
2023-05-24T06:52:18.383Z,13.1
2023-05-24T06:54:46.635Z,13.2
2023-05-24T06:57:14.893Z,13.3
2023-05-24T06:59:43.155Z,13.3
2023-05-24T07:04:39.658Z,13.2
2023-05-24T07:07:07.920Z,13.2
2023-05-24T07:09:36.172Z,13.1
2023-05-24T07:12:04.432Z,13.1
2023-05-24T07:13:19.162Z,13.1
2023-05-24T07:14:32.711Z,13.2
2023-05-24T07:17:00.970Z,13.2
2023-05-24T07:19:29.224Z,13.3
2023-05-24T07:21:57.480Z,13.3
2023-05-24T07:24:25.734Z,13.3
2023-05-24T07:26:53.995Z,13.3
2023-05-24T07:29:22.252Z,13.3
2023-05-24T07:31:50.506Z,13.3
2023-05-24T07:36:47.019Z,13.4
2023-05-24T07:38:01.742Z,13.6
2023-05-24T07:39:15.295Z,13.6
2023-05-24T07:41:43.547Z,13.5
2023-05-24T07:44:11.811Z,13.6
2023-05-24T07:46:40.061Z,13.6
2023-05-24T07:49:08.317Z,13.7
2023-05-24T07:51:36.573Z,13.7
2023-05-24T07:54:04.833Z,13.7
2023-05-24T07:56:33.084Z,13.8
2023-05-24T07:59:01.342Z,13.9
2023-05-24T08:01:29.598Z,13.9
2023-05-24T08:02:44.331Z,14.1
2023-05-24T08:06:26.363Z,14.1
2023-05-24T08:08:54.621Z,14.4
2023-05-24T08:11:22.876Z,14.4
2023-05-24T08:13:51.130Z,14.6
2023-05-24T08:16:19.386Z,14.7
2023-05-24T08:18:47.648Z,14.7
2023-05-24T08:21:15.896Z,14.5
2023-05-24T08:23:44.155Z,14.5
2023-05-24T08:26:12.407Z,14.8
2023-05-24T08:27:27.143Z,14.9
2023-05-24T08:28:40.689Z,14.9
2023-05-24T08:31:08.941Z,14.9
2023-05-24T08:33:37.198Z,14.9
2023-05-24T08:38:33.715Z,14.8
2023-05-24T08:41:01.967Z,14.7
2023-05-24T08:43:30.223Z,14.7
2023-05-24T08:45:58.476Z,14.8
2023-05-24T08:48:26.740Z,14.7
2023-05-24T08:50:54.988Z,14.6
2023-05-24T08:52:09.718Z,14.9
2023-05-24T08:53:23.264Z,15
2023-05-24T08:55:51.523Z,15
2023-05-24T08:58:19.785Z,15.1
2023-05-24T09:00:48.038Z,15.3
2023-05-24T09:03:16.297Z,15.4
2023-05-24T09:05:44.549Z,15.3
2023-05-24T09:10:41.057Z,15.4
2023-05-24T09:13:09.317Z,15.4
2023-05-24T09:15:37.572Z,15.4
2023-05-24T09:16:52.304Z,15.2
2023-05-24T09:18:05.854Z,15.1
2023-05-24T09:20:34.103Z,14.8
2023-05-24T09:23:02.361Z,15
2023-05-24T09:25:30.618Z,15.2
2023-05-24T09:27:58.870Z,15.3
2023-05-24T09:30:27.130Z,15.5
2023-05-24T09:32:55.382Z,15.1
2023-05-24T09:35:23.641Z,14.8
2023-05-24T09:37:51.894Z,15
2023-05-24T09:41:34.880Z,15.3
2023-05-24T09:42:48.431Z,15.6
2023-05-24T09:45:16.685Z,15.7
2023-05-24T09:47:44.941Z,15.8
2023-05-24T09:50:13.205Z,15.9
2023-05-24T09:52:41.453Z,16
2023-05-24T09:55:09.717Z,16
2023-05-24T09:57:37.965Z,16
2023-05-24T10:00:06.224Z,16.2
2023-05-24T10:02:34.481Z,16.3
2023-05-24T10:05:02.738Z,16.2
2023-05-24T10:06:17.466Z,16.4
2023-05-24T10:07:31.010Z,16.4
2023-05-24T10:12:27.524Z,16.5
2023-05-24T10:14:55.784Z,15.9
2023-05-24T10:17:24.034Z,16.2
2023-05-24T10:19:52.300Z,16.5
2023-05-24T10:22:20.548Z,16.7
2023-05-24T10:24:48.805Z,16.6
2023-05-24T10:27:17.060Z,16.7
2023-05-24T10:29:45.320Z,16.8
2023-05-24T10:31:00.046Z,16.8
2023-05-24T10:32:13.595Z,16.8
2023-05-24T10:34:41.851Z,16.8
2023-05-24T10:37:10.112Z,17
2023-05-24T10:39:38.362Z,17.3
2023-05-24T10:44:34.876Z,17.3
2023-05-24T10:47:03.127Z,17.4
2023-05-24T10:49:31.387Z,17.6
2023-05-24T10:51:59.640Z,17.5
2023-05-24T10:54:27.899Z,17.7
2023-05-24T10:55:42.624Z,17.8
2023-05-24T10:56:56.172Z,18
2023-05-24T10:59:24.433Z,18.1
2023-05-24T11:01:52.687Z,17.8
2023-05-24T11:04:20.946Z,17.8
2023-05-24T11:06:49.195Z,17.8
2023-05-24T11:09:17.452Z,17.8
2023-05-24T11:11:45.713Z,17.9
2023-05-24T11:16:42.228Z,17.9
2023-05-24T11:19:10.480Z,17.7
2023-05-24T11:20:25.208Z,17.8
2023-05-24T11:21:38.754Z,17.8
2023-05-24T11:24:07.014Z,17.8
2023-05-24T11:26:35.262Z,17.6
2023-05-24T11:29:03.520Z,16.8
2023-05-24T11:31:31.773Z,16.3
2023-05-24T11:34:00.034Z,16.4
2023-05-24T11:36:28.289Z,16.7
2023-05-24T11:38:56.545Z,16.5
2023-05-24T11:41:24.798Z,17
2023-05-24T11:43:53.055Z,17.3
2023-05-24T11:46:21.318Z,17.6
2023-05-24T11:48:49.572Z,17.6
2023-05-24T11:51:17.824Z,17.8
2023-05-24T11:53:46.083Z,17.8
2023-05-24T11:56:14.344Z,17.8
2023-05-24T11:58:42.591Z,17.8
2023-05-24T12:01:10.849Z,17.6
2023-05-24T12:03:39.109Z,17.6
2023-05-24T12:06:07.365Z,17.5
2023-05-24T12:08:35.623Z,17.7
2023-05-24T12:09:50.363Z,17.8
2023-05-24T12:11:03.914Z,17.8
2023-05-24T12:13:32.171Z,17.8
2023-05-24T12:18:28.683Z,18
2023-05-24T12:20:56.934Z,17.9
2023-05-24T12:23:25.187Z,17.8
2023-05-24T12:25:53.451Z,17.6
2023-05-24T12:28:21.702Z,17.7
2023-05-24T12:30:49.961Z,17.5
2023-05-24T12:33:18.219Z,17.9
2023-05-24T12:34:32.947Z,18
2023-05-24T12:35:46.495Z,17.9
2023-05-24T12:38:14.749Z,17.8
2023-05-24T12:40:43.003Z,18
2023-05-24T12:43:11.258Z,18.2
2023-05-24T12:45:39.513Z,18.5
2023-05-24T12:50:36.026Z,18.2
2023-05-24T12:53:04.287Z,18.5
2023-05-24T12:55:32.542Z,18.4
2023-05-24T12:58:00.800Z,18.6
2023-05-24T12:59:15.524Z,18.8
2023-05-24T13:00:29.073Z,18.9
2023-05-24T13:02:57.335Z,19
2023-05-24T13:05:25.586Z,19.1
2023-05-24T13:07:53.841Z,19
2023-05-24T13:10:22.097Z,19.1
2023-05-24T13:12:50.354Z,19.1
2023-05-24T13:15:18.613Z,19.1
2023-05-24T13:17:46.871Z,19.2
2023-05-24T13:22:43.384Z,19.2
2023-05-24T13:23:58.107Z,19.2
2023-05-24T13:25:11.659Z,19.3
2023-05-24T13:27:39.919Z,19.3
2023-05-24T13:30:08.165Z,19.2
2023-05-24T13:32:36.429Z,19.3
2023-05-24T13:35:04.686Z,19.3
2023-05-24T13:37:32.945Z,19.4
2023-05-24T13:40:01.193Z,19.4
2023-05-24T13:42:29.451Z,19.3
2023-05-24T13:44:57.704Z,19.3
2023-05-24T13:47:25.962Z,19.1
2023-05-24T13:48:40.694Z,19.3
2023-05-24T13:52:22.725Z,19.1
2023-05-24T13:54:50.987Z,19.1
2023-05-24T13:57:19.235Z,19.2
2023-05-24T13:59:47.498Z,19.3
2023-05-24T14:02:15.752Z,19
2023-05-24T14:04:44.006Z,19
2023-05-24T14:07:12.264Z,19.2
2023-05-24T14:09:40.522Z,19.3
2023-05-24T14:12:08.780Z,19.3
2023-05-24T14:13:23.508Z,19.2
2023-05-24T14:14:37.051Z,19.4
2023-05-24T14:17:05.308Z,19.4
2023-05-24T14:19:33.569Z,19.4
2023-05-24T14:24:30.089Z,19.5
2023-05-24T14:26:58.339Z,19.3
2023-05-24T14:29:26.596Z,19.3
2023-05-24T14:31:54.849Z,19
2023-05-24T14:34:23.102Z,19.3
2023-05-24T14:36:51.360Z,19.4
2023-05-24T14:38:06.093Z,19.5
2023-05-24T14:39:19.636Z,19.6
2023-05-24T14:41:47.894Z,19.7
2023-05-24T14:44:16.148Z,19.9
2023-05-24T14:46:44.408Z,20
2023-05-24T14:49:12.659Z,20
2023-05-24T14:51:40.917Z,20.1
2023-05-24T14:56:37.435Z,20
2023-05-24T14:59:05.691Z,20.1
2023-05-24T15:01:33.939Z,19.9
2023-05-24T15:02:48.673Z,19.8
2023-05-24T15:04:02.217Z,19.8
2023-05-24T15:06:30.475Z,19.7
2023-05-24T15:08:58.733Z,19.8
2023-05-24T15:11:26.993Z,19.6
2023-05-24T15:13:55.245Z,19.7
2023-05-24T15:16:23.505Z,19.8
2023-05-24T15:18:51.755Z,19.9
2023-05-24T15:21:20.011Z,19.9
2023-05-24T15:23:48.273Z,19.8
2023-05-24T15:27:31.261Z,19.8
2023-05-24T15:28:44.800Z,19.4
2023-05-24T15:31:13.058Z,19.4
2023-05-24T15:33:41.316Z,19.3
2023-05-24T15:36:09.576Z,19.2
2023-05-24T15:38:37.825Z,19.3
2023-05-24T15:41:06.090Z,19.4
2023-05-24T15:43:34.342Z,19.7
2023-05-24T15:46:02.596Z,19.8
2023-05-24T15:48:30.854Z,19.9
2023-05-24T15:50:59.114Z,20
2023-05-24T15:52:13.841Z,20
2023-05-24T15:53:27.392Z,20
2023-05-24T15:58:23.896Z,20.1
2023-05-24T16:00:52.159Z,19.7
2023-05-24T16:03:20.411Z,19.7
2023-05-24T16:05:48.667Z,19.9
2023-05-24T16:08:16.924Z,20
2023-05-24T16:10:45.183Z,19.9
2023-05-24T16:13:13.442Z,19.9
2023-05-24T16:15:41.700Z,19.7
2023-05-24T16:16:56.430Z,19.5
2023-05-24T16:18:09.972Z,19.3
2023-05-24T16:20:38.224Z,19.3
2023-05-24T16:23:06.480Z,19.2
2023-05-24T16:25:34.736Z,18.9
2023-05-24T16:30:31.255Z,19
2023-05-24T16:32:59.505Z,18.8
2023-05-24T16:35:27.771Z,19
2023-05-24T16:37:56.018Z,19
2023-05-24T16:40:24.283Z,18.9
2023-05-24T16:41:39.010Z,19
2023-05-24T16:42:52.553Z,19
2023-05-24T16:45:20.808Z,18.9
2023-05-24T16:47:49.070Z,19
2023-05-24T16:50:17.320Z,19
2023-05-24T16:52:45.579Z,19.2
2023-05-24T16:55:13.836Z,19.1
2023-05-24T16:57:42.088Z,19
2023-05-24T17:02:38.603Z,18.9
2023-05-24T17:05:06.857Z,18.6
2023-05-24T17:06:21.594Z,18.6
2023-05-24T17:07:35.136Z,18.6
2023-05-24T17:10:03.393Z,18.5
2023-05-24T17:12:31.652Z,18.3
2023-05-24T17:14:59.908Z,18.4
2023-05-24T17:17:28.165Z,18.3
2023-05-24T17:19:56.416Z,18.2
2023-05-24T17:22:24.671Z,18
2023-05-24T17:24:52.929Z,18
2023-05-24T17:27:21.190Z,17.9
2023-05-24T17:29:49.444Z,17.8
2023-05-24T17:32:17.704Z,17.6
2023-05-24T17:34:45.956Z,17.5
2023-05-24T17:37:14.216Z,17.7
2023-05-24T17:39:42.473Z,17.7
2023-05-24T17:42:10.721Z,17.5
2023-05-24T17:44:38.983Z,17.2
2023-05-24T17:47:07.235Z,17.2
2023-05-24T17:49:35.489Z,17.1
2023-05-24T17:52:03.744Z,17.1
2023-05-24T17:54:31.999Z,17.2
2023-05-24T17:55:46.749Z,17.1
2023-05-24T17:57:00.298Z,17.1
2023-05-24T17:59:28.556Z,17.1
2023-05-24T18:04:25.066Z,16.9
2023-05-24T18:06:53.316Z,16.9
2023-05-24T18:09:21.571Z,16.7
2023-05-24T18:11:49.833Z,16.6
2023-05-24T18:14:18.084Z,16.6
2023-05-24T18:16:46.348Z,16.5
2023-05-24T18:19:14.604Z,16.5
2023-05-24T18:20:29.333Z,16.4
2023-05-24T18:21:42.877Z,16.5
2023-05-24T18:24:11.137Z,16.4
2023-05-24T18:26:39.394Z,16.4
2023-05-24T18:29:07.644Z,16.4
2023-05-24T18:31:35.902Z,16.4
2023-05-24T18:36:32.419Z,16.3
2023-05-24T18:39:00.667Z,16.2
2023-05-24T18:41:28.923Z,16.2
2023-05-24T18:43:57.185Z,16.2
2023-05-24T18:45:11.913Z,15.9
2023-05-24T18:46:25.458Z,16.1
2023-05-24T18:48:53.720Z,16.2
2023-05-24T18:51:21.970Z,16.2
2023-05-24T18:53:50.227Z,16.3
2023-05-24T18:56:18.487Z,16.2
2023-05-24T18:58:46.739Z,16.1
2023-05-24T19:01:14.997Z,15.9
2023-05-24T19:03:43.251Z,15.7
2023-05-24T19:08:39.766Z,15.6
2023-05-24T19:09:54.498Z,15.5
2023-05-24T19:11:08.040Z,15.4
2023-05-24T19:13:36.294Z,15.4
2023-05-24T19:16:04.551Z,15.2
2023-05-24T19:18:32.815Z,15.3
2023-05-24T19:21:01.067Z,15.3
2023-05-24T19:23:29.325Z,15.2
2023-05-24T19:25:57.580Z,15.2
2023-05-24T19:28:25.839Z,15.2
2023-05-24T19:30:54.093Z,15.2
2023-05-24T19:33:22.347Z,15.1
2023-05-24T19:34:37.073Z,15.2
2023-05-24T19:38:19.108Z,15.2
2023-05-24T19:40:47.363Z,15
2023-05-24T19:43:15.621Z,14.9
2023-05-24T19:45:43.880Z,14.9
2023-05-24T19:48:12.136Z,14.8
2023-05-24T19:50:40.392Z,14.7
2023-05-24T19:53:08.650Z,14.7
2023-05-24T19:55:36.904Z,14.7
2023-05-24T19:58:05.162Z,14.6
2023-05-24T19:59:19.889Z,14.5
2023-05-24T20:00:33.437Z,14.4
2023-05-24T20:03:01.693Z,14.4
2023-05-24T20:05:29.945Z,14.3
2023-05-24T20:10:26.457Z,14.2
2023-05-24T20:12:54.713Z,14.1
2023-05-24T20:15:22.972Z,14.2
2023-05-24T20:17:51.224Z,14.2
2023-05-24T20:20:19.479Z,14.2
2023-05-24T20:22:47.737Z,14
2023-05-24T20:24:02.468Z,13.9
2023-05-24T20:25:16.013Z,13.9
2023-05-24T20:27:44.270Z,14
2023-05-24T20:30:12.523Z,14.1
2023-05-24T20:32:40.786Z,14.1
2023-05-24T20:35:09.042Z,14
2023-05-24T20:37:37.298Z,13.8
2023-05-24T20:42:33.808Z,13.7
2023-05-24T20:45:02.066Z,13.7
2023-05-24T20:47:30.318Z,13.6
2023-05-24T20:48:45.055Z,13.7
2023-05-24T20:49:58.599Z,13.6
2023-05-24T20:52:26.855Z,13.6
2023-05-24T20:54:55.115Z,13.5
2023-05-24T20:57:23.368Z,13.5
2023-05-24T20:59:51.625Z,13.3
2023-05-24T21:02:19.876Z,13.2
2023-05-24T21:04:48.140Z,13.3
2023-05-24T21:07:16.423Z,13.4
2023-05-24T21:09:44.652Z,13.5
2023-05-24T21:13:27.636Z,13.4
2023-05-24T21:14:41.186Z,13.2
2023-05-24T21:17:09.441Z,13.2
2023-05-24T21:19:37.693Z,13.1
2023-05-24T21:22:05.951Z,13.2
2023-05-24T21:24:34.204Z,13.2
2023-05-24T21:27:02.465Z,13.3
2023-05-24T21:29:30.723Z,13.3
2023-05-24T21:31:58.979Z,13.3
2023-05-24T21:34:27.230Z,13.4
2023-05-24T21:36:55.492Z,13.3
2023-05-24T21:38:10.224Z,13.4
2023-05-24T21:39:23.770Z,13.4
2023-05-24T21:44:20.280Z,13.4
2023-05-24T21:46:48.533Z,13.5
2023-05-24T21:49:16.789Z,13.3
2023-05-24T21:51:45.050Z,13.3
2023-05-24T21:54:13.303Z,13.1
2023-05-24T21:56:41.563Z,13
2023-05-24T21:59:09.819Z,13
2023-05-24T22:01:38.084Z,13
2023-05-24T22:02:52.804Z,12.9
2023-05-24T22:04:06.353Z,12.9
2023-05-24T22:06:34.603Z,12.9
2023-05-24T22:09:02.861Z,12.9
2023-05-24T22:11:31.119Z,13
2023-05-24T22:16:27.631Z,13
2023-05-24T22:18:55.887Z,13
2023-05-24T22:21:24.146Z,13.2
2023-05-24T22:23:52.406Z,13.2
2023-05-24T22:26:20.662Z,13.1
2023-05-24T22:27:35.392Z,13.2
2023-05-24T22:28:48.939Z,13.2
2023-05-24T22:31:17.189Z,13.1
2023-05-24T22:33:45.453Z,13.1
2023-05-24T22:36:13.703Z,13.1
2023-05-24T22:38:41.957Z,13.1
2023-05-24T22:41:10.215Z,13.1
2023-05-24T22:43:38.473Z,13.1
2023-05-24T22:48:34.986Z,13.1
2023-05-24T22:51:03.240Z,13.1
2023-05-24T22:52:17.970Z,13.1
2023-05-24T22:53:31.524Z,13.1
2023-05-24T22:55:59.776Z,13.1
2023-05-24T22:58:28.034Z,13
2023-05-24T23:00:56.295Z,13
2023-05-24T23:03:24.544Z,13
2023-05-24T23:05:52.806Z,13
2023-05-24T23:08:21.058Z,12.9
2023-05-24T23:10:49.320Z,12.9
2023-05-24T23:13:17.574Z,12.9
2023-05-24T23:15:45.826Z,12.9
2023-05-24T23:18:14.090Z,12.8
2023-05-24T23:20:42.348Z,12.9
2023-05-24T23:23:10.605Z,12.9
2023-05-24T23:25:38.860Z,12.9
2023-05-24T23:28:07.112Z,12.8
2023-05-24T23:30:35.370Z,12.8
2023-05-24T23:33:03.624Z,12.8
2023-05-24T23:35:31.878Z,12.7
2023-05-24T23:38:00.139Z,12.7
2023-05-24T23:40:28.393Z,12.6
2023-05-24T23:41:43.144Z,12.6
2023-05-24T23:42:56.690Z,12.6
2023-05-24T23:45:24.948Z,12.6
2023-05-24T23:50:21.458Z,12.6
2023-05-24T23:52:49.711Z,12.5
2023-05-24T23:55:17.967Z,12.5
2023-05-24T23:57:46.228Z,12.4
